sensor_id;sensor_type;location;lat;lon;timestamp;temperature;humidity
31387;DHT22;69978;50.096;8.448;2024-02-15T00:00:47;10.40;99.90
31387;DHT22;69978;50.096;8.448;2024-02-15T00:03:13;10.40;99.90
31387;DHT22;69978;50.096;8.448;2024-02-15T00:05:39;10.30;99.90
31387;DHT22;69978;50.096;8.448;2024-02-15T00:08:05;10.30;99.90
31387;DHT22;69978;50.096;8.448;2024-02-15T00:10:31;10.30;99.90
31387;DHT22;69978;50.096;8.448;2024-02-15T00:12:58;10.30;99.90
31387;DHT22;69978;50.096;8.448;2024-02-15T00:15:23;10.30;99.90
31387;DHT22;69978;50.096;8.448;2024-02-15T00:17:49;10.20;99.90
31387;DHT22;69978;50.096;8.448;2024-02-15T00:20:16;10.20;99.90
31387;DHT22;69978;50.096;8.448;2024-02-15T00:22:43;10.20;99.90
31387;DHT22;69978;50.096;8.448;2024-02-15T00:25:09;10.20;99.90
31387;DHT22;69978;50.096;8.448;2024-02-15T00:27:36;10.20;99.90
31387;DHT22;69978;50.096;8.448;2024-02-15T00:30:03;10.20;99.90
31387;DHT22;69978;50.096;8.448;2024-02-15T00:32:28;10.20;99.90
31387;DHT22;69978;50.096;8.448;2024-02-15T00:34:55;10.20;99.90
31387;DHT22;69978;50.096;8.448;2024-02-15T00:37:20;10.20;99.90
31387;DHT22;69978;50.096;8.448;2024-02-15T00:39:46;10.10;99.90
31387;DHT22;69978;50.096;8.448;2024-02-15T00:42:12;10.20;99.90
31387;DHT22;69978;50.096;8.448;2024-02-15T00:44:39;10.10;99.90
31387;DHT22;69978;50.096;8.448;2024-02-15T00:47:04;10.10;99.90
31387;DHT22;69978;50.096;8.448;2024-02-15T00:49:30;10.20;99.90
31387;DHT22;69978;50.096;8.448;2024-02-15T00:51:57;10.20;99.90
31387;DHT22;69978;50.096;8.448;2024-02-15T00:54:23;10.20;99.90
31387;DHT22;69978;50.096;8.448;2024-02-15T00:56:48;10.20;99.90
31387;DHT22;69978;50.096;8.448;2024-02-15T00:59:14;10.20;99.90
31387;DHT22;69978;50.096;8.448;2024-02-15T01:01:39;10.20;99.90
31387;DHT22;69978;50.096;8.448;2024-02-15T01:04:06;10.10;99.90
31387;DHT22;69978;50.096;8.448;2024-02-15T01:06:32;10.10;99.90
31387;DHT22;69978;50.096;8.448;2024-02-15T01:08:59;10.10;99.90
31387;DHT22;69978;50.096;8.448;2024-02-15T01:11:27;10.10;99.90
31387;DHT22;69978;50.096;8.448;2024-02-15T01:13:54;10.00;99.90
31387;DHT22;69978;50.096;8.448;2024-02-15T01:16:19;10.10;99.90
31387;DHT22;69978;50.096;8.448;2024-02-15T01:18:47;10.10;99.90
31387;DHT22;69978;50.096;8.448;2024-02-15T01:21:13;10.00;99.90
31387;DHT22;69978;50.096;8.448;2024-02-15T01:23:38;10.00;99.90
31387;DHT22;69978;50.096;8.448;2024-02-15T01:26:04;10.00;99.90
31387;DHT22;69978;50.096;8.448;2024-02-15T01:28:30;10.10;99.90
31387;DHT22;69978;50.096;8.448;2024-02-15T01:30:56;10.10;99.90
31387;DHT22;69978;50.096;8.448;2024-02-15T01:33:21;10.10;99.90
31387;DHT22;69978;50.096;8.448;2024-02-15T01:35:47;10.10;99.90
31387;DHT22;69978;50.096;8.448;2024-02-15T01:38:13;10.10;99.90
31387;DHT22;69978;50.096;8.448;2024-02-15T01:40:39;10.10;99.90
31387;DHT22;69978;50.096;8.448;2024-02-15T01:43:05;10.10;99.90
31387;DHT22;69978;50.096;8.448;2024-02-15T01:45:30;10.10;99.90
31387;DHT22;69978;50.096;8.448;2024-02-15T01:47:56;10.10;99.90
31387;DHT22;69978;50.096;8.448;2024-02-15T01:50:23;10.10;99.90
31387;DHT22;69978;50.096;8.448;2024-02-15T01:52:52;10.00;99.90
31387;DHT22;69978;50.096;8.448;2024-02-15T01:55:20;10.00;99.90
31387;DHT22;69978;50.096;8.448;2024-02-15T01:57:48;10.00;99.90
31387;DHT22;69978;50.096;8.448;2024-02-15T02:00:17;10.00;99.90
31387;DHT22;69978;50.096;8.448;2024-02-15T02:02:44;10.00;99.90
31387;DHT22;69978;50.096;8.448;2024-02-15T02:05:10;10.00;99.90
31387;DHT22;69978;50.096;8.448;2024-02-15T02:07:37;10.00;99.90
31387;DHT22;69978;50.096;8.448;2024-02-15T02:10:03;10.00;99.90
31387;DHT22;69978;50.096;8.448;2024-02-15T02:12:29;10.00;99.90
31387;DHT22;69978;50.096;8.448;2024-02-15T02:14:55;10.10;99.90
31387;DHT22;69978;50.096;8.448;2024-02-15T02:17:21;10.10;99.90
31387;DHT22;69978;50.096;8.448;2024-02-15T02:19:47;10.10;99.90
31387;DHT22;69978;50.096;8.448;2024-02-15T02:22:16;10.10;99.90
31387;DHT22;69978;50.096;8.448;2024-02-15T02:25:07;10.10;99.90
31387;DHT22;69978;50.096;8.448;2024-02-15T02:27:34;10.10;99.90
31387;DHT22;69978;50.096;8.448;2024-02-15T02:30:00;10.10;99.90
31387;DHT22;69978;50.096;8.448;2024-02-15T02:32:26;10.10;99.90
31387;DHT22;69978;50.096;8.448;2024-02-15T02:34:52;10.10;99.90
31387;DHT22;69978;50.096;8.448;2024-02-15T02:37:26;10.10;99.90
31387;DHT22;69978;50.096;8.448;2024-02-15T02:39:52;10.10;99.90
31387;DHT22;69978;50.096;8.448;2024-02-15T02:42:17;10.10;99.90
31387;DHT22;69978;50.096;8.448;2024-02-15T02:44:43;10.10;99.90
31387;DHT22;69978;50.096;8.448;2024-02-15T02:47:09;10.00;99.90
31387;DHT22;69978;50.096;8.448;2024-02-15T02:49:37;10.00;99.90
31387;DHT22;69978;50.096;8.448;2024-02-15T02:52:04;10.10;99.90
31387;DHT22;69978;50.096;8.448;2024-02-15T02:54:29;10.10;99.90
31387;DHT22;69978;50.096;8.448;2024-02-15T02:56:55;10.00;99.90
31387;DHT22;69978;50.096;8.448;2024-02-15T02:59:21;10.00;99.90
31387;DHT22;69978;50.096;8.448;2024-02-15T03:01:47;10.00;99.90
31387;DHT22;69978;50.096;8.448;2024-02-15T03:04:14;10.00;99.90
31387;DHT22;69978;50.096;8.448;2024-02-15T03:06:42;10.00;99.90
31387;DHT22;69978;50.096;8.448;2024-02-15T03:09:08;10.00;99.90
31387;DHT22;69978;50.096;8.448;2024-02-15T03:11:35;10.00;99.90
31387;DHT22;69978;50.096;8.448;2024-02-15T03:14:01;10.00;99.90
31387;DHT22;69978;50.096;8.448;2024-02-15T03:16:30;10.10;99.90
31387;DHT22;69978;50.096;8.448;2024-02-15T03:18:55;10.00;99.90
31387;DHT22;69978;50.096;8.448;2024-02-15T03:21:21;10.00;99.90
31387;DHT22;69978;50.096;8.448;2024-02-15T03:23:49;10.00;99.90
31387;DHT22;69978;50.096;8.448;2024-02-15T03:26:15;10.00;99.90
31387;DHT22;69978;50.096;8.448;2024-02-15T03:28:40;10.00;99.90
31387;DHT22;69978;50.096;8.448;2024-02-15T03:31:07;10.10;99.90
31387;DHT22;69978;50.096;8.448;2024-02-15T03:33:32;10.00;99.90
31387;DHT22;69978;50.096;8.448;2024-02-15T03:36:00;10.00;99.90
31387;DHT22;69978;50.096;8.448;2024-02-15T03:38:27;10.00;99.90
31387;DHT22;69978;50.096;8.448;2024-02-15T03:40:55;10.00;99.90
31387;DHT22;69978;50.096;8.448;2024-02-15T03:43:20;10.00;99.90
31387;DHT22;69978;50.096;8.448;2024-02-15T03:45:46;10.00;99.90
31387;DHT22;69978;50.096;8.448;2024-02-15T03:48:12;10.00;99.90
31387;DHT22;69978;50.096;8.448;2024-02-15T03:50:37;10.00;99.90
31387;DHT22;69978;50.096;8.448;2024-02-15T03:53:04;10.00;99.90
31387;DHT22;69978;50.096;8.448;2024-02-15T03:55:29;10.00;99.90
31387;DHT22;69978;50.096;8.448;2024-02-15T03:57:55;10.00;99.90
31387;DHT22;69978;50.096;8.448;2024-02-15T04:00:21;10.00;99.90
31387;DHT22;69978;50.096;8.448;2024-02-15T04:02:47;10.00;99.90
31387;DHT22;69978;50.096;8.448;2024-02-15T04:05:15;10.00;99.90
31387;DHT22;69978;50.096;8.448;2024-02-15T04:07:44;10.00;99.90
31387;DHT22;69978;50.096;8.448;2024-02-15T04:10:09;10.00;99.90
31387;DHT22;69978;50.096;8.448;2024-02-15T04:12:35;10.00;99.90
31387;DHT22;69978;50.096;8.448;2024-02-15T04:15:02;10.00;99.90
31387;DHT22;69978;50.096;8.448;2024-02-15T04:17:37;10.00;99.90
31387;DHT22;69978;50.096;8.448;2024-02-15T04:20:03;10.00;99.90
31387;DHT22;69978;50.096;8.448;2024-02-15T04:22:32;10.00;99.90
31387;DHT22;69978;50.096;8.448;2024-02-15T04:25:07;10.10;99.90
31387;DHT22;69978;50.096;8.448;2024-02-15T04:27:36;10.10;99.90
31387;DHT22;69978;50.096;8.448;2024-02-15T04:30:05;10.00;99.90
31387;DHT22;69978;50.096;8.448;2024-02-15T04:32:32;10.00;99.90
31387;DHT22;69978;50.096;8.448;2024-02-15T04:35:00;10.10;99.90
31387;DHT22;69978;50.096;8.448;2024-02-15T04:37:26;10.00;99.90
31387;DHT22;69978;50.096;8.448;2024-02-15T04:39:54;10.00;99.90
31387;DHT22;69978;50.096;8.448;2024-02-15T04:42:20;10.00;99.90
31387;DHT22;69978;50.096;8.448;2024-02-15T04:44:45;10.00;99.90
31387;DHT22;69978;50.096;8.448;2024-02-15T04:47:11;10.00;99.90
31387;DHT22;69978;50.096;8.448;2024-02-15T04:49:36;10.00;99.90
31387;DHT22;69978;50.096;8.448;2024-02-15T04:52:05;10.00;99.90
31387;DHT22;69978;50.096;8.448;2024-02-15T04:54:35;9.90;99.90
31387;DHT22;69978;50.096;8.448;2024-02-15T04:57:01;10.00;99.90
31387;DHT22;69978;50.096;8.448;2024-02-15T04:59:26;9.90;99.90
31387;DHT22;69978;50.096;8.448;2024-02-15T05:01:58;10.00;99.90
31387;DHT22;69978;50.096;8.448;2024-02-15T05:04:23;9.90;99.90
31387;DHT22;69978;50.096;8.448;2024-02-15T05:06:50;10.00;99.90
31387;DHT22;69978;50.096;8.448;2024-02-15T05:09:16;10.00;99.90
31387;DHT22;69978;50.096;8.448;2024-02-15T05:11:43;10.00;99.90
31387;DHT22;69978;50.096;8.448;2024-02-15T05:14:14;10.00;99.90
31387;DHT22;69978;50.096;8.448;2024-02-15T05:16:47;10.00;99.90
31387;DHT22;69978;50.096;8.448;2024-02-15T05:19:15;10.00;99.90
31387;DHT22;69978;50.096;8.448;2024-02-15T05:21:42;10.00;99.90
31387;DHT22;69978;50.096;8.448;2024-02-15T05:24:13;9.90;99.90
31387;DHT22;69978;50.096;8.448;2024-02-15T05:26:40;10.00;99.90
31387;DHT22;69978;50.096;8.448;2024-02-15T05:29:05;10.00;99.90
31387;DHT22;69978;50.096;8.448;2024-02-15T05:31:31;10.00;99.90
31387;DHT22;69978;50.096;8.448;2024-02-15T05:33:56;10.00;99.90
31387;DHT22;69978;50.096;8.448;2024-02-15T05:36:23;10.00;99.90
31387;DHT22;69978;50.096;8.448;2024-02-15T05:38:53;9.90;99.90
31387;DHT22;69978;50.096;8.448;2024-02-15T05:41:20;9.90;99.90
31387;DHT22;69978;50.096;8.448;2024-02-15T05:43:47;9.90;99.90
31387;DHT22;69978;50.096;8.448;2024-02-15T05:46:18;9.90;99.90
31387;DHT22;69978;50.096;8.448;2024-02-15T05:48:43;9.90;99.90
31387;DHT22;69978;50.096;8.448;2024-02-15T05:51:09;9.90;99.90
31387;DHT22;69978;50.096;8.448;2024-02-15T05:53:35;9.90;99.90
31387;DHT22;69978;50.096;8.448;2024-02-15T05:56:08;9.90;99.90
31387;DHT22;69978;50.096;8.448;2024-02-15T05:58:34;10.00;99.90
31387;DHT22;69978;50.096;8.448;2024-02-15T06:01:01;10.00;99.90
31387;DHT22;69978;50.096;8.448;2024-02-15T06:03:31;10.00;99.90
31387;DHT22;69978;50.096;8.448;2024-02-15T06:06:00;10.00;99.90
31387;DHT22;69978;50.096;8.448;2024-02-15T06:08:32;10.00;99.90
31387;DHT22;69978;50.096;8.448;2024-02-15T06:10:58;10.00;99.90
31387;DHT22;69978;50.096;8.448;2024-02-15T06:13:26;10.00;99.90
31387;DHT22;69978;50.096;8.448;2024-02-15T06:15:51;10.00;99.90
31387;DHT22;69978;50.096;8.448;2024-02-15T06:18:20;10.00;99.90
31387;DHT22;69978;50.096;8.448;2024-02-15T06:20:57;10.00;99.90
31387;DHT22;69978;50.096;8.448;2024-02-15T06:23:25;10.00;99.90
31387;DHT22;69978;50.096;8.448;2024-02-15T06:25:55;10.00;99.90
31387;DHT22;69978;50.096;8.448;2024-02-15T06:28:26;10.00;99.90
31387;DHT22;69978;50.096;8.448;2024-02-15T06:31:11;10.00;99.90
31387;DHT22;69978;50.096;8.448;2024-02-15T06:33:55;10.00;99.90
31387;DHT22;69978;50.096;8.448;2024-02-15T06:36:52;10.00;99.90
31387;DHT22;69978;50.096;8.448;2024-02-15T06:39:36;10.00;99.90
31387;DHT22;69978;50.096;8.448;2024-02-15T06:42:09;10.00;99.90
31387;DHT22;69978;50.096;8.448;2024-02-15T06:44:36;10.10;99.90
31387;DHT22;69978;50.096;8.448;2024-02-15T06:47:04;10.10;99.90
31387;DHT22;69978;50.096;8.448;2024-02-15T06:49:29;10.10;99.90
31387;DHT22;69978;50.096;8.448;2024-02-15T06:51:55;10.10;99.90
31387;DHT22;69978;50.096;8.448;2024-02-15T06:54:21;10.10;99.90
31387;DHT22;69978;50.096;8.448;2024-02-15T06:56:48;10.00;99.90
31387;DHT22;69978;50.096;8.448;2024-02-15T06:59:13;10.10;99.90
31387;DHT22;69978;50.096;8.448;2024-02-15T07:01:41;10.10;99.90
31387;DHT22;69978;50.096;8.448;2024-02-15T07:04:07;10.00;99.90
31387;DHT22;69978;50.096;8.448;2024-02-15T07:06:36;10.10;99.90
31387;DHT22;69978;50.096;8.448;2024-02-15T07:09:06;10.00;99.90
31387;DHT22;69978;50.096;8.448;2024-02-15T07:11:35;10.10;99.90
31387;DHT22;69978;50.096;8.448;2024-02-15T07:14:01;10.00;99.90
31387;DHT22;69978;50.096;8.448;2024-02-15T07:16:27;10.00;99.90
31387;DHT22;69978;50.096;8.448;2024-02-15T07:18:53;10.00;99.90
31387;DHT22;69978;50.096;8.448;2024-02-15T07:21:20;10.00;99.90
31387;DHT22;69978;50.096;8.448;2024-02-15T07:23:51;10.00;99.90
31387;DHT22;69978;50.096;8.448;2024-02-15T07:26:17;10.00;99.90
31387;DHT22;69978;50.096;8.448;2024-02-15T07:28:45;10.00;99.90
31387;DHT22;69978;50.096;8.448;2024-02-15T07:31:11;10.10;99.90
31387;DHT22;69978;50.096;8.448;2024-02-15T07:33:37;10.00;99.90
31387;DHT22;69978;50.096;8.448;2024-02-15T07:36:04;10.00;99.90
31387;DHT22;69978;50.096;8.448;2024-02-15T07:38:30;10.10;99.90
31387;DHT22;69978;50.096;8.448;2024-02-15T07:40:59;10.10;99.90
31387;DHT22;69978;50.096;8.448;2024-02-15T07:43:25;10.10;99.90
31387;DHT22;69978;50.096;8.448;2024-02-15T07:45:52;10.10;99.90
31387;DHT22;69978;50.096;8.448;2024-02-15T07:48:17;10.20;99.90
31387;DHT22;69978;50.096;8.448;2024-02-15T07:50:43;10.20;99.90
31387;DHT22;69978;50.096;8.448;2024-02-15T07:53:10;10.20;99.90
31387;DHT22;69978;50.096;8.448;2024-02-15T07:55:37;10.20;99.90
31387;DHT22;69978;50.096;8.448;2024-02-15T07:58:03;10.20;99.90
31387;DHT22;69978;50.096;8.448;2024-02-15T08:00:30;10.20;99.90
31387;DHT22;69978;50.096;8.448;2024-02-15T08:02:55;10.30;99.90
31387;DHT22;69978;50.096;8.448;2024-02-15T08:05:22;10.30;99.90
31387;DHT22;69978;50.096;8.448;2024-02-15T08:07:48;10.20;99.90
31387;DHT22;69978;50.096;8.448;2024-02-15T08:10:15;10.30;99.90
31387;DHT22;69978;50.096;8.448;2024-02-15T08:12:44;10.30;99.90
31387;DHT22;69978;50.096;8.448;2024-02-15T08:15:11;10.30;99.90
31387;DHT22;69978;50.096;8.448;2024-02-15T08:17:44;10.30;99.90
31387;DHT22;69978;50.096;8.448;2024-02-15T08:20:15;10.30;99.90
31387;DHT22;69978;50.096;8.448;2024-02-15T08:22:46;10.40;99.90
31387;DHT22;69978;50.096;8.448;2024-02-15T08:25:13;10.40;99.90
31387;DHT22;69978;50.096;8.448;2024-02-15T08:27:41;10.40;99.90
31387;DHT22;69978;50.096;8.448;2024-02-15T08:30:11;10.50;99.90
31387;DHT22;69978;50.096;8.448;2024-02-15T08:32:39;10.40;99.90
31387;DHT22;69978;50.096;8.448;2024-02-15T08:35:06;10.50;99.90
31387;DHT22;69978;50.096;8.448;2024-02-15T08:37:35;10.50;99.90
31387;DHT22;69978;50.096;8.448;2024-02-15T08:40:03;10.50;99.90
31387;DHT22;69978;50.096;8.448;2024-02-15T08:42:30;10.50;99.90
31387;DHT22;69978;50.096;8.448;2024-02-15T08:44:56;10.50;99.90
31387;DHT22;69978;50.096;8.448;2024-02-15T08:47:22;10.60;99.90
31387;DHT22;69978;50.096;8.448;2024-02-15T08:49:47;10.60;99.90
31387;DHT22;69978;50.096;8.448;2024-02-15T08:52:14;10.60;99.90
31387;DHT22;69978;50.096;8.448;2024-02-15T08:54:40;10.60;99.90
31387;DHT22;69978;50.096;8.448;2024-02-15T08:57:06;10.60;99.90
31387;DHT22;69978;50.096;8.448;2024-02-15T08:59:31;10.70;99.90
31387;DHT22;69978;50.096;8.448;2024-02-15T09:01:58;10.70;99.90
31387;DHT22;69978;50.096;8.448;2024-02-15T09:04:25;10.70;99.90
31387;DHT22;69978;50.096;8.448;2024-02-15T09:06:51;10.70;99.90
31387;DHT22;69978;50.096;8.448;2024-02-15T09:09:17;10.70;99.90
31387;DHT22;69978;50.096;8.448;2024-02-15T09:11:43;10.80;99.90
31387;DHT22;69978;50.096;8.448;2024-02-15T09:14:08;10.80;99.90
31387;DHT22;69978;50.096;8.448;2024-02-15T09:16:37;10.80;99.90
31387;DHT22;69978;50.096;8.448;2024-02-15T09:19:02;10.80;99.90
31387;DHT22;69978;50.096;8.448;2024-02-15T09:21:28;10.90;99.90
31387;DHT22;69978;50.096;8.448;2024-02-15T09:23:55;11.00;99.90
31387;DHT22;69978;50.096;8.448;2024-02-15T09:26:22;11.00;99.90
31387;DHT22;69978;50.096;8.448;2024-02-15T09:28:48;11.10;99.90
31387;DHT22;69978;50.096;8.448;2024-02-15T09:31:14;11.20;99.90
31387;DHT22;69978;50.096;8.448;2024-02-15T09:33:40;11.20;99.90
31387;DHT22;69978;50.096;8.448;2024-02-15T09:36:06;11.20;99.90
31387;DHT22;69978;50.096;8.448;2024-02-15T09:38:31;11.30;99.90
31387;DHT22;69978;50.096;8.448;2024-02-15T09:40:57;11.30;99.90
31387;DHT22;69978;50.096;8.448;2024-02-15T09:43:23;11.30;99.90
31387;DHT22;69978;50.096;8.448;2024-02-15T09:45:55;11.40;99.90
31387;DHT22;69978;50.096;8.448;2024-02-15T09:48:23;11.50;99.90
31387;DHT22;69978;50.096;8.448;2024-02-15T09:50:52;11.50;99.90
31387;DHT22;69978;50.096;8.448;2024-02-15T09:53:22;11.60;99.90
31387;DHT22;69978;50.096;8.448;2024-02-15T09:55:53;11.70;99.90
31387;DHT22;69978;50.096;8.448;2024-02-15T09:58:22;11.80;99.90
31387;DHT22;69978;50.096;8.448;2024-02-15T10:00:51;12.00;99.90
31387;DHT22;69978;50.096;8.448;2024-02-15T10:03:18;12.00;99.90
31387;DHT22;69978;50.096;8.448;2024-02-15T10:05:48;12.10;99.90
31387;DHT22;69978;50.096;8.448;2024-02-15T10:08:15;12.20;99.90
31387;DHT22;69978;50.096;8.448;2024-02-15T10:10:41;12.30;99.90
31387;DHT22;69978;50.096;8.448;2024-02-15T10:13:12;12.40;99.90
31387;DHT22;69978;50.096;8.448;2024-02-15T10:15:39;12.50;99.90
31387;DHT22;69978;50.096;8.448;2024-02-15T10:18:09;12.50;99.90
31387;DHT22;69978;50.096;8.448;2024-02-15T10:20:40;12.60;99.90
31387;DHT22;69978;50.096;8.448;2024-02-15T10:23:13;12.60;99.90
31387;DHT22;69978;50.096;8.448;2024-02-15T10:25:42;12.60;99.90
31387;DHT22;69978;50.096;8.448;2024-02-15T10:28:10;12.60;99.90
31387;DHT22;69978;50.096;8.448;2024-02-15T10:30:38;12.60;99.90
31387;DHT22;69978;50.096;8.448;2024-02-15T10:33:04;12.60;99.90
31387;DHT22;69978;50.096;8.448;2024-02-15T10:35:31;12.60;99.90
31387;DHT22;69978;50.096;8.448;2024-02-15T10:38:10;12.50;99.90
31387;DHT22;69978;50.096;8.448;2024-02-15T10:40:37;12.60;99.90
31387;DHT22;69978;50.096;8.448;2024-02-15T10:43:05;12.60;99.90
31387;DHT22;69978;50.096;8.448;2024-02-15T10:45:35;12.60;99.90
31387;DHT22;69978;50.096;8.448;2024-02-15T10:48:23;12.60;99.90
31387;DHT22;69978;50.096;8.448;2024-02-15T10:51:21;12.80;99.90
31387;DHT22;69978;50.096;8.448;2024-02-15T10:54:13;12.80;99.90
31387;DHT22;69978;50.096;8.448;2024-02-15T10:57:06;13.00;99.90
31387;DHT22;69978;50.096;8.448;2024-02-15T10:59:57;13.20;99.90
31387;DHT22;69978;50.096;8.448;2024-02-15T11:03:07;13.40;99.90
31387;DHT22;69978;50.096;8.448;2024-02-15T11:05:39;13.40;99.90
31387;DHT22;69978;50.096;8.448;2024-02-15T11:08:14;13.40;99.90
31387;DHT22;69978;50.096;8.448;2024-02-15T11:11:04;13.40;99.90
31387;DHT22;69978;50.096;8.448;2024-02-15T11:13:38;13.40;99.90
31387;DHT22;69978;50.096;8.448;2024-02-15T11:16:10;13.40;99.90
31387;DHT22;69978;50.096;8.448;2024-02-15T11:18:51;13.40;99.90
31387;DHT22;69978;50.096;8.448;2024-02-15T11:21:55;13.50;99.90
31387;DHT22;69978;50.096;8.448;2024-02-15T11:24:51;13.50;99.90
31387;DHT22;69978;50.096;8.448;2024-02-15T11:27:34;13.40;99.90
31387;DHT22;69978;50.096;8.448;2024-02-15T12:18:36;13.80;99.90
31387;DHT22;69978;50.096;8.448;2024-02-15T12:21:09;13.80;99.90
31387;DHT22;69978;50.096;8.448;2024-02-15T12:23:38;13.80;99.90
31387;DHT22;69978;50.096;8.448;2024-02-15T12:26:06;13.90;99.90
31387;DHT22;69978;50.096;8.448;2024-02-15T12:28:33;13.90;99.90
31387;DHT22;69978;50.096;8.448;2024-02-15T12:31:01;13.90;99.90
31387;DHT22;69978;50.096;8.448;2024-02-15T12:33:27;13.90;99.90
31387;DHT22;69978;50.096;8.448;2024-02-15T12:36:06;14.00;99.90
31387;DHT22;69978;50.096;8.448;2024-02-15T12:38:35;14.00;99.90
31387;DHT22;69978;50.096;8.448;2024-02-15T12:41:23;14.00;99.90
31387;DHT22;69978;50.096;8.448;2024-02-15T12:43:55;14.00;99.90
31387;DHT22;69978;50.096;8.448;2024-02-15T12:46:26;14.10;99.90
31387;DHT22;69978;50.096;8.448;2024-02-15T12:51:40;14.10;99.90
31387;DHT22;69978;50.096;8.448;2024-02-15T12:54:22;14.20;99.90
31387;DHT22;69978;50.096;8.448;2024-02-15T12:57:10;14.10;99.90
31387;DHT22;69978;50.096;8.448;2024-02-15T12:59:39;14.10;99.90
31387;DHT22;69978;50.096;8.448;2024-02-15T13:02:08;14.10;99.90
31387;DHT22;69978;50.096;8.448;2024-02-15T13:04:35;14.20;99.90
31387;DHT22;69978;50.096;8.448;2024-02-15T13:07:03;14.20;99.90
31387;DHT22;69978;50.096;8.448;2024-02-15T13:09:47;14.20;99.90
31387;DHT22;69978;50.096;8.448;2024-02-15T13:12:18;14.20;99.90
31387;DHT22;69978;50.096;8.448;2024-02-15T13:14:59;14.30;99.90
31387;DHT22;69978;50.096;8.448;2024-02-15T13:17:30;14.30;99.90
31387;DHT22;69978;50.096;8.448;2024-02-15T13:19:56;14.20;99.90
31387;DHT22;69978;50.096;8.448;2024-02-15T13:22:32;14.30;99.90
31387;DHT22;69978;50.096;8.448;2024-02-15T13:25:08;14.30;99.90
31387;DHT22;69978;50.096;8.448;2024-02-15T13:27:36;14.20;99.90
31387;DHT22;69978;50.096;8.448;2024-02-15T13:30:06;14.20;99.90
31387;DHT22;69978;50.096;8.448;2024-02-15T13:32:39;14.20;99.90
31387;DHT22;69978;50.096;8.448;2024-02-15T13:35:26;14.20;99.90
31387;DHT22;69978;50.096;8.448;2024-02-15T13:37:53;14.20;99.90
31387;DHT22;69978;50.096;8.448;2024-02-15T13:40:28;14.10;99.90
31387;DHT22;69978;50.096;8.448;2024-02-15T13:43:01;14.10;99.90
31387;DHT22;69978;50.096;8.448;2024-02-15T13:45:49;14.10;99.90
31387;DHT22;69978;50.096;8.448;2024-02-15T13:48:23;14.10;99.90
31387;DHT22;69978;50.096;8.448;2024-02-15T13:50:54;14.10;99.90
31387;DHT22;69978;50.096;8.448;2024-02-15T13:53:31;14.10;99.90
31387;DHT22;69978;50.096;8.448;2024-02-15T13:55:57;14.10;99.90
31387;DHT22;69978;50.096;8.448;2024-02-15T13:58:26;14.10;99.90
31387;DHT22;69978;50.096;8.448;2024-02-15T14:00:55;14.10;99.90
31387;DHT22;69978;50.096;8.448;2024-02-15T14:03:26;14.00;99.90
31387;DHT22;69978;50.096;8.448;2024-02-15T14:05:54;14.00;99.90
31387;DHT22;69978;50.096;8.448;2024-02-15T14:08:27;14.00;99.90
31387;DHT22;69978;50.096;8.448;2024-02-15T14:10:53;14.00;99.90
31387;DHT22;69978;50.096;8.448;2024-02-15T14:13:28;14.00;99.90
31387;DHT22;69978;50.096;8.448;2024-02-15T14:15:58;14.00;99.90
31387;DHT22;69978;50.096;8.448;2024-02-15T14:18:28;13.90;99.90
31387;DHT22;69978;50.096;8.448;2024-02-15T14:20:54;14.00;99.90
31387;DHT22;69978;50.096;8.448;2024-02-15T14:23:20;13.90;99.90
31387;DHT22;69978;50.096;8.448;2024-02-15T14:25:47;13.90;99.90
31387;DHT22;69978;50.096;8.448;2024-02-15T14:28:16;13.90;99.90
31387;DHT22;69978;50.096;8.448;2024-02-15T14:30:45;13.90;99.90
31387;DHT22;69978;50.096;8.448;2024-02-15T14:33:42;14.00;99.90
31387;DHT22;69978;50.096;8.448;2024-02-15T14:36:34;13.90;99.90
31387;DHT22;69978;50.096;8.448;2024-02-15T14:39:15;13.90;99.90
31387;DHT22;69978;50.096;8.448;2024-02-15T14:41:52;13.90;99.90
31387;DHT22;69978;50.096;8.448;2024-02-15T14:45:10;13.90;99.90
31387;DHT22;69978;50.096;8.448;2024-02-15T14:47:55;13.90;99.90
31387;DHT22;69978;50.096;8.448;2024-02-15T14:54:03;13.80;99.90
31387;DHT22;69978;50.096;8.448;2024-02-15T14:56:53;13.80;99.90
31387;DHT22;69978;50.096;8.448;2024-02-15T14:59:47;13.80;99.90
31387;DHT22;69978;50.096;8.448;2024-02-15T15:02:15;13.90;99.90
31387;DHT22;69978;50.096;8.448;2024-02-15T15:04:41;13.80;99.90
31387;DHT22;69978;50.096;8.448;2024-02-15T15:07:33;13.90;99.90
31387;DHT22;69978;50.096;8.448;2024-02-15T15:10:20;13.80;99.90
31387;DHT22;69978;50.096;8.448;2024-02-15T15:13:04;13.80;99.90
31387;DHT22;69978;50.096;8.448;2024-02-15T15:15:31;13.80;99.90
31387;DHT22;69978;50.096;8.448;2024-02-15T15:17:59;13.80;99.90
31387;DHT22;69978;50.096;8.448;2024-02-15T15:20:32;13.80;99.90
31387;DHT22;69978;50.096;8.448;2024-02-15T15:23:11;13.70;99.90
31387;DHT22;69978;50.096;8.448;2024-02-15T15:25:41;13.70;99.90
31387;DHT22;69978;50.096;8.448;2024-02-15T15:28:10;13.70;99.90
31387;DHT22;69978;50.096;8.448;2024-02-15T15:30:37;13.70;99.90
31387;DHT22;69978;50.096;8.448;2024-02-15T15:33:10;13.70;99.90
31387;DHT22;69978;50.096;8.448;2024-02-15T15:35:36;13.70;99.90
31387;DHT22;69978;50.096;8.448;2024-02-15T15:38:02;13.70;99.90
31387;DHT22;69978;50.096;8.448;2024-02-15T15:40:28;13.60;99.90
31387;DHT22;69978;50.096;8.448;2024-02-15T15:42:55;13.60;99.90
31387;DHT22;69978;50.096;8.448;2024-02-15T15:45:21;13.60;99.90
31387;DHT22;69978;50.096;8.448;2024-02-15T15:47:48;13.60;99.90
31387;DHT22;69978;50.096;8.448;2024-02-15T15:50:14;13.60;99.90
31387;DHT22;69978;50.096;8.448;2024-02-15T15:52:45;13.60;99.90
31387;DHT22;69978;50.096;8.448;2024-02-15T15:55:13;13.60;99.90
31387;DHT22;69978;50.096;8.448;2024-02-15T15:57:45;13.50;99.90
31387;DHT22;69978;50.096;8.448;2024-02-15T16:00:14;13.50;99.90
31387;DHT22;69978;50.096;8.448;2024-02-15T16:02:45;13.50;99.90
31387;DHT22;69978;50.096;8.448;2024-02-15T16:05:11;13.40;99.90
31387;DHT22;69978;50.096;8.448;2024-02-15T16:07:47;13.40;99.90
31387;DHT22;69978;50.096;8.448;2024-02-15T16:13:04;13.40;99.90
31387;DHT22;69978;50.096;8.448;2024-02-15T16:15:38;13.30;99.90
31387;DHT22;69978;50.096;8.448;2024-02-15T16:18:11;13.30;99.90
31387;DHT22;69978;50.096;8.448;2024-02-15T16:20:39;13.30;99.90
31387;DHT22;69978;50.096;8.448;2024-02-15T16:23:08;13.20;99.90
31387;DHT22;69978;50.096;8.448;2024-02-15T16:25:33;13.20;99.90
31387;DHT22;69978;50.096;8.448;2024-02-15T16:28:02;13.20;99.90
31387;DHT22;69978;50.096;8.448;2024-02-15T16:30:34;13.20;99.90
31387;DHT22;69978;50.096;8.448;2024-02-15T16:33:03;13.10;99.90
31387;DHT22;69978;50.096;8.448;2024-02-15T16:35:34;13.10;99.90
31387;DHT22;69978;50.096;8.448;2024-02-15T16:38:01;13.10;99.90
31387;DHT22;69978;50.096;8.448;2024-02-15T16:40:27;13.00;99.90
31387;DHT22;69978;50.096;8.448;2024-02-15T16:42:56;13.00;99.90
31387;DHT22;69978;50.096;8.448;2024-02-15T16:45:23;13.00;99.90